Time;durP1;ratioP1;P1;durP2;ratioP2;P2;SDS_P1;SDS_P2;PMS_P1;PMS_P2;Temp;Humidity;BMP_temperature;BMP_pressure;BME280_temperature;BME280_humidity;BME280_pressure;Samples;Min_cycle;Max_cycle;Signal;HPM_P1;HPM_P2
2023/06/25 00:01:06;;;;;;;5.65;4.65;;;;;;;19.21;69.95;100543.94;5067350;28;20514;-47
2023/06/25 00:03:33;;;;;;;9.05;5.13;;;;;;;19.20;70.22;100545.13;5070535;28;20033;-44
2023/06/25 00:06:00;;;;;;;8.13;5.30;;;;;;;19.20;70.13;100539.53;5067626;28;20045;-44
2023/06/25 00:08:27;;;;;;;7.75;5.22;;;;;;;19.18;70.68;100542.75;5067525;28;20048;-44
2023/06/25 00:10:54;;;;;;;10.32;5.75;;;;;;;19.16;70.79;100531.16;5066901;28;20044;-44
2023/06/25 00:13:20;;;;;;;9.40;5.43;;;;;;;19.15;70.87;100518.31;5067070;28;20132;-45
2023/06/25 00:15:47;;;;;;;9.50;5.30;;;;;;;19.16;71.14;100513.50;5068473;28;20521;-44
2023/06/25 00:18:14;;;;;;;7.75;4.90;;;;;;;19.19;71.15;100507.06;5069152;28;20062;-45
2023/06/25 00:20:42;;;;;;;8.80;5.18;;;;;;;19.17;71.13;100507.47;5070409;28;20110;-44
2023/06/25 00:23:09;;;;;;;6.43;5.22;;;;;;;19.20;71.35;100503.03;5058783;28;20449;-44
2023/06/25 00:25:35;;;;;;;7.50;5.43;;;;;;;19.21;71.27;100499.84;5073217;28;20051;-45
2023/06/25 00:28:07;;;;;;;10.48;5.85;;;;;;;19.22;71.43;100495.03;5073520;28;20052;-44
2023/06/25 00:30:35;;;;;;;11.82;5.45;;;;;;;19.24;71.81;100489.81;5073894;28;20516;-44
2023/06/25 00:33:03;;;;;;;7.90;4.22;;;;;;;19.26;71.85;100487.38;5074127;28;20048;-44
2023/06/25 00:36:02;;;;;;;7.13;4.18;;;;;;;19.26;72.35;100487.38;5073309;28;20403;-44
2023/06/25 00:38:29;;;;;;;7.32;4.35;;;;;;;19.27;72.17;100486.19;5073866;28;20056;-44
2023/06/25 00:40:55;;;;;;;8.10;5.28;;;;;;;19.26;72.17;100481.75;5072156;28;20037;-44
2023/06/25 00:43:22;;;;;;;6.65;4.28;;;;;;;19.27;72.43;100477.75;5074033;28;20053;-48
2023/06/25 00:45:49;;;;;;;7.72;4.85;;;;;;;19.26;72.46;100476.94;5060429;28;20044;-45
2023/06/25 00:48:16;;;;;;;9.75;5.53;;;;;;;19.26;72.71;100473.34;5073623;28;20051;-49
2023/06/25 00:50:43;;;;;;;8.30;4.68;;;;;;;19.27;72.90;100466.53;5072110;28;20055;-44
2023/06/25 00:53:10;;;;;;;10.57;5.35;;;;;;;19.27;73.24;100458.09;5068644;28;20044;-44
2023/06/25 00:55:36;;;;;;;6.40;5.45;;;;;;;19.28;73.26;100451.25;5071999;28;20068;-44
2023/06/25 00:58:04;;;;;;;6.78;4.80;;;;;;;19.26;73.54;100431.25;5073007;28;20447;-45
2023/06/25 01:00:33;;;;;;;8.30;5.35;;;;;;;19.22;73.73;100427.66;5073059;28;20123;-46
2023/06/25 01:03:12;;;;;;;8.30;4.75;;;;;;;19.20;74.07;100422.44;5073115;28;20060;-44
2023/06/25 01:05:49;;;;;;;9.23;4.68;;;;;;;19.21;74.07;100409.22;5073474;28;20138;-51
2023/06/25 01:08:35;;;;;;;8.15;4.80;;;;;;;19.20;73.98;100410.41;5073310;28;20059;-45
2023/06/25 01:11:04;;;;;;;7.13;4.68;;;;;;;19.18;74.47;100427.69;5068517;28;20048;-44
2023/06/25 01:13:31;;;;;;;7.35;4.43;;;;;;;19.18;74.41;100408.03;5072772;28;20067;-46
2023/06/25 01:15:58;;;;;;;8.73;5.55;;;;;;;19.16;74.86;100404.84;5072905;28;20051;-45
2023/06/25 01:18:25;;;;;;;9.70;4.65;;;;;;;19.14;74.70;100393.22;5082738;28;20050;-44
2023/06/25 01:20:56;;;;;;;9.25;5.38;;;;;;;19.11;74.90;100401.69;5063990;28;20045;-44
2023/06/25 01:23:23;;;;;;;7.38;4.35;;;;;;;19.11;75.12;100404.50;5071622;28;20041;-44
2023/06/25 01:25:51;;;;;;;7.75;4.82;;;;;;;19.07;75.51;100401.69;5071802;28;20040;-44
2023/06/25 01:28:20;;;;;;;9.77;5.38;;;;;;;19.01;75.77;100385.72;5070953;28;20052;-44
2023/06/25 01:30:48;;;;;;;11.15;5.05;;;;;;;19.00;75.82;100389.72;5068216;28;20051;-44
2023/06/25 01:33:15;;;;;;;10.25;4.80;;;;;;;18.95;76.12;100376.94;5070450;28;20174;-45
2023/06/25 01:35:42;;;;;;;10.07;6.10;;;;;;;18.92;76.64;100371.34;5071260;28;20163;-45
2023/06/25 01:38:10;;;;;;;14.25;5.50;;;;;;;18.91;76.39;100358.50;5072758;28;20048;-44
2023/06/25 01:40:37;;;;;;;10.55;5.63;;;;;;;18.90;76.55;100368.16;5072270;28;20036;-46
2023/06/25 01:43:04;;;;;;;12.98;6.15;;;;;;;18.84;76.96;100370.59;5070955;28;20055;-44
2023/06/25 01:45:31;;;;;;;9.02;5.60;;;;;;;18.79;77.16;100371.03;5069266;28;20084;-44
2023/06/25 01:47:58;;;;;;;13.52;5.70;;;;;;;18.78;77.26;100356.19;5072258;28;20149;-44
2023/06/25 01:50:25;;;;;;;7.88;5.60;;;;;;;18.76;77.24;100358.63;5071963;28;20045;-45
2023/06/25 01:52:53;;;;;;;11.43;5.22;;;;;;;18.72;77.48;100349.41;5072475;28;20387;-45
2023/06/25 01:55:19;;;;;;;14.00;6.10;;;;;;;18.69;77.73;100346.66;5071870;28;20094;-44
2023/06/25 01:57:47;;;;;;;13.88;6.38;;;;;;;18.68;77.81;100350.66;5072523;28;20056;-44
2023/06/25 02:00:14;;;;;;;13.45;6.07;;;;;;;18.63;78.14;100346.28;5072230;28;20059;-44
2023/06/25 02:02:41;;;;;;;11.63;6.00;;;;;;;18.58;78.17;100340.31;5072091;28;20049;-45
2023/06/25 02:05:09;;;;;;;13.73;5.93;;;;;;;18.55;78.63;100353.13;5070628;28;20087;-44
2023/06/25 02:07:35;;;;;;;17.77;8.30;;;;;;;18.51;78.61;100365.56;5071077;28;20103;-44
2023/06/25 02:10:03;;;;;;;11.65;6.32;;;;;;;18.48;78.75;100357.97;5071871;28;20048;-44
2023/06/25 02:12:30;;;;;;;13.55;7.47;;;;;;;18.48;78.85;100344.75;5072040;28;20486;-47
2023/06/25 02:14:57;;;;;;;10.20;6.90;;;;;;;18.47;78.98;100356.34;5071595;28;20041;-44
2023/06/25 02:17:23;;;;;;;12.57;6.35;;;;;;;18.47;79.21;100345.13;5070620;28;20056;-44
2023/06/25 02:19:50;;;;;;;11.77;6.82;;;;;;;18.49;79.62;100331.53;5069885;28;21999;-44
2023/06/25 02:22:17;;;;;;;18.33;7.68;;;;;;;18.48;79.29;100341.94;5071422;28;20567;-44
2023/06/25 02:24:44;;;;;;;13.77;6.43;;;;;;;18.51;79.30;100334.72;5072516;28;20067;-44
2023/06/25 02:27:11;;;;;;;13.10;5.97;;;;;;;18.51;79.47;100324.31;5071215;28;20040;-44
2023/06/25 02:29:37;;;;;;;13.63;6.57;;;;;;;18.52;79.38;100308.28;5071849;28;20125;-44
2023/06/25 02:32:05;;;;;;;10.60;5.82;;;;;;;18.54;79.49;100301.06;5069903;28;20076;-45
2023/06/25 02:34:32;;;;;;;13.20;7.57;;;;;;;18.57;79.44;100317.06;5069980;28;20102;-44
2023/06/25 02:36:58;;;;;;;12.98;6.57;;;;;;;18.62;79.23;100311.03;5071803;28;20066;-44
2023/06/25 02:39:25;;;;;;;10.98;5.68;;;;;;;18.68;79.39;100306.59;5071191;28;20425;-44
2023/06/25 02:41:52;;;;;;;11.02;5.95;;;;;;;18.72;79.34;100321.38;5069216;28;20180;-44
2023/06/25 02:44:19;;;;;;;10.18;7.18;;;;;;;18.74;78.91;100307.72;5066644;28;20048;-44
2023/06/25 02:46:45;;;;;;;11.40;6.00;;;;;;;18.77;79.00;100294.91;5067820;28;20063;-44
2023/06/25 02:49:12;;;;;;;9.35;5.93;;;;;;;18.78;78.91;100280.47;5067711;28;20044;-45
2023/06/25 02:51:39;;;;;;;9.65;5.43;;;;;;;18.80;78.47;100271.63;5068767;28;20060;-44
2023/06/25 02:54:06;;;;;;;11.77;5.85;;;;;;;18.82;78.50;100275.63;5070868;28;20437;-45
2023/06/25 02:56:32;;;;;;;11.55;5.72;;;;;;;18.84;78.46;100284.44;5068917;28;20045;-44
2023/06/25 02:58:59;;;;;;;9.50;5.63;;;;;;;18.85;78.49;100282.41;5067857;28;20040;-44
2023/06/25 03:01:26;;;;;;;10.13;6.22;;;;;;;18.88;78.35;100292.81;5097662;22;20063;-47
2023/06/25 03:03:53;;;;;;;9.60;4.78;;;;;;;18.90;77.76;100292.41;5070241;28;20109;-44
2023/06/25 03:06:21;;;;;;;6.40;3.95;;;;;;;18.88;77.40;100281.59;5069041;28;20455;-44
2023/06/25 03:08:48;;;;;;;9.60;3.70;;;;;;;18.89;77.05;100276.78;5069273;28;20032;-44
2023/06/25 03:11:15;;;;;;;5.50;4.03;;;;;;;18.88;76.10;100270.38;5068485;28;20082;-44
2023/06/25 03:13:42;;;;;;;6.60;4.07;;;;;;;18.87;75.20;100263.19;5068871;28;20086;-44
2023/06/25 03:16:08;;;;;;;6.50;3.70;;;;;;;18.89;74.54;100246.72;5067206;28;20068;-45
2023/06/25 03:18:35;;;;;;;6.28;3.63;;;;;;;18.89;74.21;100241.13;5069726;28;20383;-46
2023/06/25 03:21:02;;;;;;;4.32;3.60;;;;;;;18.88;73.19;100230.31;5067581;28;20572;-44
2023/06/25 03:23:29;;;;;;;5.28;3.38;;;;;;;18.89;72.95;100231.91;5065483;28;20049;-44
2023/06/25 03:25:56;;;;;;;6.82;3.20;;;;;;;18.88;72.67;100227.53;5063952;28;20044;-44
2023/06/25 03:28:23;;;;;;;4.25;2.80;;;;;;;18.85;71.70;100227.13;5067766;28;20439;-45
2023/06/25 03:30:50;;;;;;;3.67;2.63;;;;;;;18.84;71.47;100222.72;5059701;28;20040;-48
2023/06/25 03:33:17;;;;;;;8.18;3.53;;;;;;;18.84;70.99;100213.53;5064646;28;20540;-44
2023/06/25 03:35:45;;;;;;;3.95;2.83;;;;;;;18.86;70.73;100222.31;5066222;28;20041;-44
2023/06/25 03:38:12;;;;;;;4.28;3.38;;;;;;;18.85;70.38;100221.50;5067280;28;20049;-44
2023/06/25 03:40:40;;;;;;;5.20;3.53;;;;;;;18.84;70.30;100214.31;5066922;28;20067;-44
2023/06/25 03:43:07;;;;;;;7.85;3.60;;;;;;;18.84;70.12;100217.13;5066696;28;20045;-44
2023/06/25 03:45:34;;;;;;;6.40;3.38;;;;;;;18.84;70.20;100214.31;5065739;28;20778;-44
2023/06/25 03:48:01;;;;;;;5.90;3.42;;;;;;;18.83;69.75;100212.72;5070604;28;20474;-44
2023/06/25 03:50:28;;;;;;;5.38;3.50;;;;;;;18.83;69.56;100209.91;5068965;28;20098;-44
2023/06/25 03:52:55;;;;;;;7.45;3.13;;;;;;;18.84;69.81;100219.94;5044561;28;20044;-44
2023/06/25 03:55:22;;;;;;;7.80;3.15;;;;;;;18.84;69.58;100230.34;5066078;28;20084;-44
2023/06/25 03:57:50;;;;;;;6.45;4.13;;;;;;;18.83;69.23;100229.53;5071136;28;20058;-44
2023/06/25 04:00:17;;;;;;;7.43;3.08;;;;;;;18.81;69.18;100237.59;5067933;28;20040;-45
2023/06/25 04:02:43;;;;;;;6.78;3.45;;;;;;;18.81;69.25;100231.16;5066065;28;20106;-44
2023/06/25 04:05:10;;;;;;;5.07;3.70;;;;;;;18.79;68.92;100217.56;5073608;28;20056;-44
2023/06/25 04:07:37;;;;;;;8.60;4.07;;;;;;;18.81;68.88;100225.56;5072646;28;20076;-44
2023/06/25 04:10:04;;;;;;;8.93;3.80;;;;;;;18.80;68.47;100227.56;5071988;28;20520;-44
2023/06/25 04:12:31;;;;;;;6.53;3.85;;;;;;;18.80;68.63;100230.38;5073531;28;20106;-45
2023/06/25 04:14:58;;;;;;;8.98;3.63;;;;;;;18.80;68.58;100215.53;5071163;28;20089;-47
2023/06/25 04:17:24;;;;;;;7.25;3.35;;;;;;;18.80;68.57;100213.53;5072288;28;20087;-44
2023/06/25 04:19:52;;;;;;;5.57;3.70;;;;;;;18.82;68.31;100210.34;5072136;28;20051;-44
2023/06/25 04:22:18;;;;;;;5.72;3.33;;;;;;;18.80;68.17;100199.50;5072527;28;20578;-44
2023/06/25 04:24:45;;;;;;;5.75;2.80;;;;;;;18.79;68.18;100197.94;5066623;28;20059;-45
2023/06/25 04:27:12;;;;;;;7.03;3.63;;;;;;;18.80;68.08;100202.31;5071659;28;20047;-44
2023/06/25 04:29:39;;;;;;;8.13;3.15;;;;;;;18.80;68.06;100207.94;5068628;28;20121;-44
2023/06/25 04:32:06;;;;;;;6.78;3.05;;;;;;;18.82;67.89;100211.09;5070641;28;20048;-44
2023/06/25 04:34:33;;;;;;;9.60;3.33;;;;;;;18.85;68.01;100201.06;5073208;28;20067;-45
2023/06/25 04:37:00;;;;;;;10.65;4.10;;;;;;;18.85;67.70;100193.44;5073758;28;20040;-44
2023/06/25 04:39:27;;;;;;;4.57;2.75;;;;;;;18.88;67.85;100188.25;5071802;28;20033;-47
2023/06/25 04:41:54;;;;;;;7.78;3.13;;;;;;;18.90;67.90;100191.44;5068240;28;20048;-44
2023/06/25 04:44:21;;;;;;;4.28;2.72;;;;;;;18.90;67.48;100194.22;5067496;28;20040;-44
2023/06/25 04:46:47;;;;;;;7.90;2.90;;;;;;;18.90;67.80;100200.66;5070480;28;20528;-44
2023/06/25 04:49:15;;;;;;;6.18;2.90;;;;;;;18.93;67.70;100193.41;5069737;28;20056;-44
2023/06/25 04:51:45;;;;;;;5.35;2.75;;;;;;;18.94;67.63;100186.56;5072468;28;20490;-45
2023/06/25 04:54:13;;;;;;;6.07;3.22;;;;;;;18.95;67.59;100180.56;5072785;28;20397;-44
2023/06/25 04:56:40;;;;;;;12.15;3.55;;;;;;;18.97;67.85;100180.13;5048719;28;20068;-44
2023/06/25 04:59:07;;;;;;;5.85;3.58;;;;;;;18.93;67.83;100174.53;5054296;28;20087;-44
2023/06/25 05:01:35;;;;;;;9.95;3.30;;;;;;;18.88;67.75;100175.00;5072273;28;20432;-46
2023/06/25 05:04:02;;;;;;;7.05;4.03;;;;;;;18.89;68.22;100182.22;5078128;28;20379;-46
2023/06/25 05:06:29;;;;;;;4.57;3.50;;;;;;;18.90;68.19;100171.78;5076323;28;20444;-48
2023/06/25 05:08:56;;;;;;;7.88;3.95;;;;;;;18.90;68.40;100171.78;5054053;28;20036;-45
2023/06/25 05:11:22;;;;;;;6.72;3.22;;;;;;;18.88;68.39;100174.22;5068469;28;20537;-44
2023/06/25 05:13:49;;;;;;;8.93;4.80;;;;;;;18.88;68.28;100172.19;5068519;28;20127;-44
2023/06/25 05:16:16;;;;;;;3.38;2.90;;;;;;;18.91;68.53;100174.16;5066654;28;20040;-44
2023/06/25 05:18:43;;;;;;;7.32;3.63;;;;;;;18.95;68.56;100160.13;5069687;28;20446;-45
2023/06/25 05:21:09;;;;;;;7.00;3.35;;;;;;;19.00;68.83;100168.09;5072255;28;20093;-44
2023/06/25 05:23:44;;;;;;;7.63;3.30;;;;;;;19.02;69.12;100171.25;5071117;28;20072;-44
2023/06/25 05:26:11;;;;;;;6.95;3.20;;;;;;;19.05;68.94;100178.84;5070344;28;20147;-44
2023/06/25 05:28:38;;;;;;;12.25;3.92;;;;;;;19.06;69.24;100174.84;5051531;28;21816;-45
2023/06/25 05:31:06;;;;;;;7.97;3.53;;;;;;;19.09;69.53;100174.00;5067461;28;20040;-44
2023/06/25 05:33:33;;;;;;;9.68;4.40;;;;;;;19.08;69.45;100166.81;5070116;28;20093;-46
2023/06/25 05:35:59;;;;;;;6.88;3.25;;;;;;;19.09;69.49;100179.63;5071796;28;20044;-44
2023/06/25 05:38:26;;;;;;;5.18;3.47;;;;;;;19.09;69.62;100180.41;5070395;28;20040;-44
2023/06/25 05:40:53;;;;;;;7.03;3.40;;;;;;;19.10;69.95;100196.03;5068048;28;20036;-46
2023/06/25 05:43:20;;;;;;;8.32;3.30;;;;;;;19.14;69.86;100196.00;5059684;28;20044;-44
2023/06/25 05:45:47;;;;;;;7.38;4.13;;;;;;;19.14;70.67;100193.19;5069604;28;20397;-44
2023/06/25 05:48:13;;;;;;;7.57;4.20;;;;;;;19.11;71.33;100199.63;5065256;28;20052;-44
2023/06/25 05:50:40;;;;;;;11.25;3.72;;;;;;;19.03;71.89;100189.69;5052220;28;20048;-44
2023/06/25 05:53:07;;;;;;;6.93;4.05;;;;;;;18.94;72.63;100190.19;5071441;28;20090;-45
2023/06/25 05:55:34;;;;;;;8.63;3.90;;;;;;;18.89;73.16;100195.44;5067877;28;20389;-44
2023/06/25 05:58:02;;;;;;;11.10;4.75;;;;;;;18.81;73.54;100201.13;5068340;28;20076;-44
2023/06/25 06:00:29;;;;;;;10.20;4.50;;;;;;;18.78;73.87;100201.94;5068320;28;20379;-44
2023/06/25 06:02:56;;;;;;;9.27;3.97;;;;;;;18.78;74.18;100209.56;5070961;28;20057;-44
2023/06/25 06:05:23;;;;;;;11.57;5.15;;;;;;;18.78;74.46;100223.56;5070363;28;20040;-44
2023/06/25 06:07:50;;;;;;;11.57;4.95;;;;;;;18.78;74.88;100221.56;5070456;28;20047;-45
2023/06/25 06:10:17;;;;;;;8.68;4.78;;;;;;;18.76;75.46;100229.63;5070000;28;20056;-44
2023/06/25 06:12:44;;;;;;;7.70;4.57;;;;;;;18.77;75.95;100222.78;5068816;28;20769;-44
2023/06/25 06:15:11;;;;;;;8.65;5.10;;;;;;;18.73;76.18;100213.59;5065068;28;20468;-44
2023/06/25 06:17:37;;;;;;;8.07;5.05;;;;;;;18.71;76.87;100221.63;5069133;28;20075;-44
2023/06/25 06:20:05;;;;;;;10.18;5.68;;;;;;;18.70;77.02;100236.84;5067879;28;20040;-44
2023/06/25 06:22:32;;;;;;;5.85;4.38;;;;;;;18.70;77.55;100231.25;5064280;28;20033;-46
2023/06/25 06:24:59;;;;;;;13.80;5.45;;;;;;;18.68;77.75;100247.69;5071816;28;20436;-44
2023/06/25 06:27:26;;;;;;;7.28;4.38;;;;;;;18.66;77.95;100241.72;5072697;28;20055;-44
2023/06/25 06:29:52;;;;;;;7.35;3.50;;;;;;;18.60;78.58;100220.94;5071516;28;20044;-44
2023/06/25 06:32:19;;;;;;;6.30;3.67;;;;;;;18.56;79.07;100219.38;5070231;28;20053;-44
2023/06/25 06:34:46;;;;;;;8.82;4.40;;;;;;;18.56;79.29;100211.72;5071241;28;20094;-47
2023/06/25 06:37:13;;;;;;;5.15;3.22;;;;;;;18.55;79.91;100218.56;5071185;28;20121;-44
2023/06/25 06:39:40;;;;;;;6.65;3.60;;;;;;;18.58;80.06;100214.94;5072758;28;20044;-44
2023/06/25 06:42:06;;;;;;;6.85;3.30;;;;;;;18.59;80.27;100212.91;5071458;28;20049;-44
2023/06/25 06:44:33;;;;;;;4.88;2.70;;;;;;;18.59;80.65;100208.09;5071452;28;20049;-44
2023/06/25 06:47:00;;;;;;;5.32;3.22;;;;;;;18.59;80.53;100210.91;5071212;28;20101;-44
2023/06/25 06:49:27;;;;;;;4.25;2.78;;;;;;;18.62;80.71;100214.88;5071220;28;20048;-43
2023/06/25 06:51:54;;;;;;;2.85;2.55;;;;;;;18.61;80.63;100208.47;5070265;28;20044;-43
2023/06/25 06:54:20;;;;;;;4.00;3.00;;;;;;;18.61;80.66;100200.06;5071662;28;20040;-43
2023/06/25 06:56:48;;;;;;;3.25;2.63;;;;;;;18.61;80.82;100208.47;5069630;28;20080;-43
2023/06/25 06:59:16;;;;;;;4.82;2.70;;;;;;;18.64;80.80;100218.06;5071332;28;20052;-44
2023/06/25 07:01:43;;;;;;;5.45;2.70;;;;;;;18.67;80.84;100223.66;5070546;28;20162;-43
2023/06/25 07:04:10;;;;;;;3.38;3.08;;;;;;;18.64;81.13;100218.06;5071430;28;20052;-43
2023/06/25 07:06:37;;;;;;;5.70;3.25;;;;;;;18.57;81.24;100216.13;5071280;28;20058;-44
2023/06/25 07:09:04;;;;;;;3.50;2.70;;;;;;;18.55;81.63;100212.94;5066764;28;20040;-43
2023/06/25 07:11:30;;;;;;;6.13;2.97;;;;;;;18.52;81.69;100213.78;5069005;28;20131;-44
2023/06/25 07:13:57;;;;;;;5.18;3.45;;;;;;;18.50;81.81;100221.81;5060200;28;20498;-44
2023/06/25 07:16:24;;;;;;;5.03;4.10;;;;;;;18.49;81.90;100208.97;5068349;28;20047;-44
2023/06/25 07:18:51;;;;;;;3.92;2.97;;;;;;;18.44;81.96;100212.19;5070878;28;20044;-44
2023/06/25 07:21:18;;;;;;;5.35;3.15;;;;;;;18.38;82.16;100222.25;5071180;28;20064;-44
2023/06/25 07:23:44;;;;;;;4.78;2.38;;;;;;;18.31;81.95;100236.31;5071332;28;20053;-45
2023/06/25 07:26:12;;;;;;;3.17;2.83;;;;;;;18.18;81.86;100249.19;5070483;28;20040;-44
2023/06/25 07:28:39;;;;;;;2.15;1.80;;;;;;;18.06;81.67;100263.66;5062162;28;20506;-44
2023/06/25 07:31:08;;;;;;;2.17;1.27;;;;;;;17.93;81.16;100263.31;5063427;28;20045;-44
2023/06/25 07:33:35;;;;;;;4.13;2.05;;;;;;;17.85;81.13;100249.75;5057928;28;20135;-44
2023/06/25 07:36:03;;;;;;;3.40;1.40;;;;;;;17.84;81.20;100228.56;5055618;28;20047;-43
2023/06/25 07:38:30;;;;;;;1.85;1.10;;;;;;;17.86;81.25;100246.56;5068460;28;20041;-43
2023/06/25 07:40:57;;;;;;;5.38;1.42;;;;;;;17.90;81.25;100247.31;5075013;28;20048;-44
2023/06/25 07:43:24;;;;;;;1.45;1.33;;;;;;;17.93;81.32;100242.91;5069241;28;20086;-44
2023/06/25 07:45:54;;;;;;;2.03;1.33;;;;;;;17.95;81.44;100243.31;5067238;28;20485;-44
2023/06/25 07:48:21;;;;;;;1.38;1.02;;;;;;;17.95;81.37;100234.91;5070273;28;20049;-44
2023/06/25 07:50:48;;;;;;;4.90;1.30;;;;;;;17.97;81.85;100238.09;5066936;28;20048;-45
2023/06/25 07:53:15;;;;;;;6.45;2.70;;;;;;;17.99;82.11;100227.28;5073143;28;20071;-43
2023/06/25 07:55:44;;;;;;;2.08;1.42;;;;;;;18.01;82.29;100227.66;5071024;28;20049;-44
2023/06/25 07:58:28;;;;;;;5.75;2.92;;;;;;;18.06;82.58;100235.63;5065525;28;20068;-44
2023/06/25 08:00:55;;;;;;;3.42;1.40;;;;;;;18.07;82.37;100226.03;5066436;28;20052;-44
2023/06/25 08:03:22;;;;;;;3.80;2.15;;;;;;;18.02;82.83;100232.88;5071227;28;20039;-44
2023/06/25 08:05:49;;;;;;;3.30;1.52;;;;;;;18.01;82.70;100230.47;5071650;28;20493;-45
2023/06/25 08:08:17;;;;;;;5.25;1.80;;;;;;;17.96;83.01;100225.28;5069905;28;20608;-44
2023/06/25 08:10:43;;;;;;;4.03;1.35;;;;;;;17.96;83.07;100239.28;5072368;28;20062;-44
2023/06/25 08:13:10;;;;;;;3.10;1.38;;;;;;;17.96;83.24;100230.88;5071999;28;20062;-44
2023/06/25 08:15:37;;;;;;;5.10;1.33;;;;;;;17.95;83.42;100229.31;5069412;28;20067;-44
2023/06/25 08:18:05;;;;;;;2.55;1.35;;;;;;;17.90;83.33;100210.91;5054817;28;20098;-45
2023/06/25 08:20:31;;;;;;;5.05;1.58;;;;;;;17.90;83.51;100204.50;5072913;28;20052;-45
2023/06/25 08:22:58;;;;;;;3.08;1.20;;;;;;;17.86;83.30;100192.53;5071651;28;20154;-44
2023/06/25 08:25:26;;;;;;;3.45;1.40;;;;;;;17.80;83.57;100175.34;5072563;28;20090;-45
2023/06/25 08:27:53;;;;;;;2.15;1.50;;;;;;;17.80;83.78;100200.56;5075608;28;20429;-45
2023/06/25 08:30:20;;;;;;;2.42;1.15;;;;;;;17.80;83.70;100214.56;5069096;28;20041;-45
2023/06/25 08:32:47;;;;;;;2.80;1.17;;;;;;;17.78;83.63;100216.19;5069977;28;20052;-43
2023/06/25 08:35:14;;;;;;;2.45;1.42;;;;;;;17.74;84.00;100215.41;5069956;28;20127;-44
2023/06/25 08:37:42;;;;;;;2.83;1.55;;;;;;;17.72;84.13;100209.38;5069113;28;20040;-44
2023/06/25 08:40:12;;;;;;;2.97;1.05;;;;;;;17.76;84.05;100227.00;5053347;28;20040;-43
2023/06/25 08:42:42;;;;;;;6.78;2.50;;;;;;;17.79;84.05;100226.19;5063377;28;20041;-44
2023/06/25 08:45:10;;;;;;;2.85;1.50;;;;;;;17.84;84.42;100234.16;5062882;28;20063;-46
2023/06/25 08:47:39;;;;;;;2.47;1.25;;;;;;;17.85;84.22;100230.94;5061421;28;20053;-44
2023/06/25 08:50:09;;;;;;;4.70;1.55;;;;;;;17.86;84.24;100226.13;5067817;28;21950;-43
2023/06/25 08:52:40;;;;;;;4.15;1.55;;;;;;;17.89;84.46;100231.75;5062468;28;20055;-45
2023/06/25 08:55:10;;;;;;;3.78;1.42;;;;;;;17.95;84.35;100226.50;5069985;28;20398;-45
2023/06/25 08:57:37;;;;;;;3.88;1.65;;;;;;;18.00;84.38;100226.84;5072188;28;20076;-45
2023/06/25 09:00:06;;;;;;;2.67;1.42;;;;;;;18.06;84.32;100219.63;5069768;28;20391;-43
2023/06/25 09:02:34;;;;;;;4.82;1.27;;;;;;;18.14;84.28;100226.00;5071247;28;20053;-43
2023/06/25 09:05:07;;;;;;;1.48;0.85;;;;;;;18.19;84.11;100234.75;5071423;28;20154;-44
2023/06/25 09:07:35;;;;;;;1.75;1.10;;;;;;;18.26;84.11;100239.53;5071784;28;20044;-44
2023/06/25 09:10:02;;;;;;;4.00;1.60;;;;;;;18.31;83.95;100247.53;5068286;28;20434;-44
2023/06/25 09:12:29;;;;;;;2.97;1.02;;;;;;;18.30;83.88;100248.72;5071862;28;20120;-45
2023/06/25 09:14:56;;;;;;;2.88;1.08;;;;;;;18.31;83.95;100241.91;5071226;28;20071;-45
2023/06/25 09:17:23;;;;;;;2.70;1.10;;;;;;;18.31;84.25;100255.94;5070270;28;20489;-45
2023/06/25 09:19:51;;;;;;;1.98;1.02;;;;;;;18.26;83.76;100267.56;5070027;28;20049;-47
2023/06/25 09:22:18;;;;;;;4.78;1.20;;;;;;;18.16;84.12;100272.00;5063192;28;20040;-47
2023/06/25 09:24:49;;;;;;;4.88;1.60;;;;;;;18.07;83.98;100266.06;5051695;28;20102;-45
2023/06/25 09:27:20;;;;;;;4.88;1.10;;;;;;;17.94;84.61;100273.31;5079317;28;20050;-44
2023/06/25 09:29:47;;;;;;;1.57;0.80;;;;;;;17.85;84.39;100272.94;5051865;28;20448;-44
2023/06/25 09:32:29;;;;;;;2.10;1.70;;;;;;;17.73;84.48;100265.00;5072581;28;20098;-43
2023/06/25 09:34:57;;;;;;;2.33;1.25;;;;;;;17.63;84.63;100255.41;5049317;28;20036;-43
2023/06/25 09:37:28;;;;;;;2.28;1.05;;;;;;;17.58;84.78;100255.03;5070016;28;20060;-43
2023/06/25 09:39:57;;;;;;;5.60;1.30;;;;;;;17.54;84.84;100249.47;5070720;28;20495;-44
2023/06/25 09:42:26;;;;;;;1.58;1.10;;;;;;;17.54;85.09;100257.06;5069654;28;20054;-43
2023/06/25 09:44:55;;;;;;;1.90;1.17;;;;;;;17.57;85.32;100248.66;5069536;28;20041;-43
2023/06/25 09:47:23;;;;;;;2.25;1.30;;;;;;;17.60;85.21;100247.03;5070821;28;20045;-46
2023/06/25 09:49:52;;;;;;;1.75;1.20;;;;;;;17.58;85.05;100247.44;5053596;28;20072;-43
2023/06/25 09:52:22;;;;;;;3.95;1.42;;;;;;;17.66;85.39;100251.00;5070145;28;20139;-43
2023/06/25 09:54:52;;;;;;;1.88;1.15;;;;;;;17.79;85.34;100240.97;5068583;28;20040;-42
2023/06/25 09:57:22;;;;;;;3.58;1.55;;;;;;;17.96;85.29;100244.91;5048776;28;20045;-42
2023/06/25 09:59:51;;;;;;;3.65;1.35;;;;;;;18.14;85.11;100266.00;5072219;28;20506;-43
2023/06/25 10:02:20;;;;;;;1.63;1.27;;;;;;;18.24;84.85;100267.97;5069684;28;20048;-42
2023/06/25 10:04:47;;;;;;;2.30;1.40;;;;;;;18.32;84.62;100265.13;5047701;28;20418;-50
2023/06/25 10:07:15;;;;;;;2.88;1.98;;;;;;;18.35;84.74;100276.31;5063915;28;20044;-43
2023/06/25 10:09:54;;;;;;;2.75;1.23;;;;;;;18.31;84.50;100278.34;5069151;28;20406;-43
2023/06/25 10:12:21;;;;;;;3.17;1.77;;;;;;;18.31;84.71;100274.75;5049109;28;20044;-43
2023/06/25 10:14:49;;;;;;;1.95;1.40;;;;;;;18.38;84.98;100281.09;5052333;28;20041;-43
2023/06/25 10:17:22;;;;;;;1.77;1.52;;;;;;;18.52;85.10;100280.25;5070033;28;20041;-43
2023/06/25 10:19:54;;;;;;;1.77;1.13;;;;;;;18.76;85.09;100285.69;5051507;28;20563;-44
2023/06/25 10:22:24;;;;;;;2.63;1.25;;;;;;;19.05;84.79;100286.28;5068168;28;20609;-44
2023/06/25 10:24:54;;;;;;;7.93;1.83;;;;;;;19.26;84.14;100307.75;5069992;28;20102;-44
2023/06/25 10:27:25;;;;;;;1.73;1.38;;;;;;;19.42;84.03;100291.97;5062718;28;20135;-45
2023/06/25 10:29:56;;;;;;;2.13;1.50;;;;;;;19.69;83.66;100308.97;5060833;28;20135;-44
2023/06/25 10:32:29;;;;;;;2.53;1.42;;;;;;;20.07;83.34;100300.50;5053107;28;20094;-45
2023/06/25 10:35:03;;;;;;;2.38;1.20;;;;;;;20.25;82.99;100279.41;5070678;28;20051;-45
2023/06/25 10:37:32;;;;;;;3.05;1.13;;;;;;;20.35;82.31;100277.66;5069932;28;20094;-44
2023/06/25 10:40:05;;;;;;;3.72;1.10;;;;;;;20.38;82.52;100257.94;5071387;28;20055;-44
2023/06/25 10:42:33;;;;;;;2.33;1.42;;;;;;;20.51;81.97;100246.91;5071133;28;20098;-44
2023/06/25 10:45:02;;;;;;;1.40;1.17;;;;;;;20.54;81.03;100274.19;5071809;28;20052;-44
2023/06/25 10:47:30;;;;;;;1.38;0.90;;;;;;;20.50;80.80;100298.75;5070430;28;20068;-44
2023/06/25 10:49:57;;;;;;;2.13;1.27;;;;;;;20.37;80.32;100320.22;5070618;28;20068;-44
2023/06/25 10:52:25;;;;;;;3.63;1.00;;;;;;;20.18;80.24;100309.56;5070919;28;20059;-43
2023/06/25 10:54:55;;;;;;;1.85;1.00;;;;;;;19.93;80.24;100301.47;5070018;28;20048;-45
2023/06/25 10:57:22;;;;;;;0.88;0.88;;;;;;;19.78;80.31;100289.59;5070845;28;20401;-44
2023/06/25 10:59:51;;;;;;;1.02;0.95;;;;;;;19.70;80.25;100292.88;5071395;28;20375;-43
2023/06/25 11:02:22;;;;;;;2.00;1.30;;;;;;;19.69;80.06;100286.50;5069920;28;20123;-45
2023/06/25 11:04:51;;;;;;;2.42;1.33;;;;;;;19.76;79.89;100292.00;5069013;28;20041;-43
2023/06/25 11:07:22;;;;;;;1.85;0.82;;;;;;;19.86;79.59;100302.34;5069269;28;20048;-44
2023/06/25 11:09:59;;;;;;;5.07;1.63;;;;;;;19.96;79.15;100304.22;5060256;28;20057;-44
2023/06/25 11:12:28;;;;;;;1.38;0.80;;;;;;;20.10;79.07;100299.63;5058762;28;20052;-43
2023/06/25 11:14:56;;;;;;;2.45;0.73;;;;;;;20.39;78.84;100295.28;5069822;28;20040;-44
2023/06/25 11:17:26;;;;;;;3.78;1.42;;;;;;;20.59;78.29;100294.19;5070225;28;20521;-44
2023/06/25 11:19:56;;;;;;;3.00;0.88;;;;;;;20.70;77.58;100285.59;5052935;28;20037;-44
2023/06/25 11:22:26;;;;;;;1.70;1.00;;;;;;;20.71;77.74;100294.81;5049808;28;20094;-44
2023/06/25 11:24:53;;;;;;;2.80;0.63;;;;;;;20.70;77.12;100305.28;5067534;28;20087;-46
2023/06/25 11:27:28;;;;;;;1.20;0.80;;;;;;;20.74;76.64;100305.22;5073279;28;20048;-44